createdAt,value
2023-03-10T00:01:40.064Z,11.2
2023-03-10T00:07:44.676Z,11.3
2023-03-10T00:13:38.024Z,11.4
2023-03-10T00:19:29.763Z,11.4
2023-03-10T00:25:25.225Z,11.6
2023-03-10T00:31:22.472Z,11.6
2023-03-10T00:37:17.326Z,11.6
2023-03-10T00:43:12.649Z,11.6
2023-03-10T00:49:16.568Z,11.6
2023-03-10T00:55:08.859Z,11.7
2023-03-10T01:01:02.987Z,11.7
2023-03-10T01:07:03.577Z,11.7
2023-03-10T01:12:57.596Z,11.7
2023-03-10T01:18:51.504Z,11.7
2023-03-10T01:24:44.045Z,11.7
2023-03-10T01:30:36.594Z,11.6
2023-03-10T01:36:29.626Z,11.6
2023-03-10T01:42:19.512Z,11.6
2023-03-10T01:48:10.609Z,11.6
2023-03-10T01:54:14.703Z,11.6
2023-03-10T02:00:08.620Z,11.6
2023-03-10T02:05:59.522Z,11.5
2023-03-10T02:11:53.623Z,11.6
2023-03-10T02:17:45.554Z,11.5
2023-03-10T02:23:41.171Z,11.5
2023-03-10T02:29:59.090Z,11.4
2023-03-10T02:35:53.821Z,11.4
2023-03-10T02:41:45.400Z,11.4
2023-03-10T02:47:44.046Z,11.4
2023-03-10T02:53:59.528Z,11.4
2023-03-10T02:59:54.786Z,11.3
2023-03-10T03:05:51.247Z,11.2
2023-03-10T03:11:47.832Z,11.2
2023-03-10T03:17:44.893Z,11.1
2023-03-10T03:23:38.340Z,11
2023-03-10T03:29:39.814Z,11
2023-03-10T03:35:32.914Z,10.9
2023-03-10T03:41:28.629Z,10.8
2023-03-10T03:47:22.464Z,10.8
2023-03-10T03:53:13.310Z,10.7
2023-03-10T03:59:05.638Z,10.6
2023-03-10T04:04:58.605Z,10.6
2023-03-10T04:10:51.474Z,10.6
2023-03-10T04:16:44.256Z,10.7
2023-03-10T04:22:49.289Z,10.6
2023-03-10T04:28:42.258Z,10.6
2023-03-10T04:34:42.447Z,10.6
2023-03-10T04:40:34.960Z,10.6
2023-03-10T04:46:29.515Z,10.6
2023-03-10T04:52:28.312Z,10.6
2023-03-10T04:58:20.644Z,10.7
2023-03-10T05:04:14.996Z,10.7
2023-03-10T05:10:18.932Z,10.7
2023-03-10T05:16:17.984Z,10.7
2023-03-10T05:22:14.597Z,10.7
2023-03-10T05:39:55.986Z,10.5
2023-03-10T05:45:53.458Z,10.6
2023-03-10T05:51:43.084Z,10.3
2023-03-10T05:57:39.133Z,10.2
2023-03-10T06:03:44.867Z,10.3
2023-03-10T06:09:39.412Z,10.4
2023-03-10T06:15:31.840Z,10.3
2023-03-10T06:22:34.906Z,10.2
2023-03-10T06:28:25.083Z,10.4
2023-03-10T06:34:17.498Z,10.3
2023-03-10T06:40:08.434Z,10.4
2023-03-10T06:46:00.348Z,10.4
2023-03-10T06:51:52.889Z,10.4
2023-03-10T06:57:44.218Z,10.5
2023-03-10T07:03:35.132Z,10.4
2023-03-10T07:15:30.321Z,10.6
2023-03-10T07:21:23.204Z,10.5
2023-03-10T07:27:14.184Z,10.5
2023-03-10T07:33:05.684Z,10.6
2023-03-10T07:38:55.446Z,10.6
2023-03-10T07:44:46.239Z,10.7
2023-03-10T07:50:36.597Z,10.8
2023-03-10T07:56:27.358Z,10.9
2023-03-10T08:02:18.619Z,11.1
2023-03-10T08:08:13.345Z,11.2
2023-03-10T08:14:04.046Z,11.3
2023-03-10T08:19:56.045Z,11.4
2023-03-10T08:25:46.782Z,11.6
2023-03-10T08:31:39.937Z,11.5
2023-03-10T08:37:31.588Z,11.5
2023-03-10T08:43:23.158Z,11.4
2023-03-10T08:49:14.076Z,11.4
2023-03-10T08:55:05.238Z,11.5
2023-03-10T09:00:57.258Z,11.5
2023-03-10T09:06:47.985Z,11.5
2023-03-10T09:12:41.466Z,11.6
2023-03-10T09:18:32.953Z,11.8
2023-03-10T09:24:24.297Z,11.9
2023-03-10T09:30:17.964Z,11.9
2023-03-10T09:36:10.923Z,12.1
2023-03-10T09:42:04.353Z,12.2
2023-03-10T09:47:56.861Z,12.4
2023-03-10T09:53:50.453Z,12.3
2023-03-10T09:59:43.425Z,12.3
2023-03-10T10:05:34.529Z,12.3
2023-03-10T10:11:25.373Z,12.6
2023-03-10T10:17:17.429Z,12.7
2023-03-10T10:23:09.107Z,12.6
2023-03-10T10:28:59.594Z,12.7
2023-03-10T10:34:50.844Z,12.7
2023-03-10T10:40:41.941Z,12.8
2023-03-10T10:46:32.285Z,13
2023-03-10T10:52:23.637Z,13.1
2023-03-10T10:58:14.304Z,13.1
2023-03-10T11:04:04.786Z,13
2023-03-10T11:09:55.812Z,12.9
2023-03-10T11:15:46.759Z,12.9
2023-03-10T11:21:38.074Z,12.9
2023-03-10T11:27:28.478Z,12.8
2023-03-10T11:33:19.265Z,12.8
2023-03-10T11:39:09.727Z,12.4
2023-03-10T11:45:00.416Z,12.3
2023-03-10T11:50:49.353Z,12.3
2023-03-10T11:56:39.047Z,12.1
2023-03-10T12:02:31.227Z,11.9
2023-03-10T12:08:22.022Z,11.8
2023-03-10T12:14:16.887Z,11.8
2023-03-10T12:20:11.749Z,11.9
2023-03-10T12:26:03.495Z,11.7
2023-03-10T12:31:53.336Z,11.6
2023-03-10T12:37:44.646Z,11.8
2023-03-10T12:43:34.946Z,11.9
2023-03-10T12:49:27.659Z,11.9
2023-03-10T12:55:18.593Z,11.9
2023-03-10T13:01:09.008Z,11.9
2023-03-10T13:07:00.750Z,11.9
2023-03-10T13:12:51.266Z,11.8
2023-03-10T13:18:41.956Z,11.8
2023-03-10T13:24:33.080Z,11.8
2023-03-10T13:30:23.341Z,11.7
2023-03-10T13:37:23.273Z,11.7
2023-03-10T13:43:13.177Z,11.9
2023-03-10T13:49:05.114Z,12
2023-03-10T13:54:56.986Z,12.1
2023-03-10T14:00:47.917Z,12.1
2023-03-10T14:06:38.302Z,12
2023-03-10T14:12:28.912Z,11.9
2023-03-10T14:18:19.284Z,11.6
2023-03-10T14:24:09.634Z,11.5
2023-03-10T14:30:00.954Z,11.4
2023-03-10T14:35:51.755Z,11.3
2023-03-10T14:41:42.969Z,11.1
2023-03-10T14:47:32.971Z,11
2023-03-10T14:53:27.791Z,11
2023-03-10T14:59:20.358Z,10.9
2023-03-10T15:05:12.212Z,10.6
2023-03-10T15:11:02.553Z,10.6
2023-03-10T15:16:52.961Z,10.4
2023-03-10T15:22:43.894Z,10.2
2023-03-10T15:28:35.804Z,9.9
2023-03-10T15:34:27.976Z,9.8
2023-03-10T15:40:23.060Z,9.8
2023-03-10T15:46:20.604Z,9.7
2023-03-10T15:52:12.340Z,9.7
2023-03-10T15:58:04.132Z,9.5
2023-03-10T16:03:55.046Z,9.4
2023-03-10T16:09:45.725Z,9.4
2023-03-10T16:15:37.251Z,9.3
2023-03-10T16:21:28.710Z,9.2
2023-03-10T16:27:21.497Z,9.1
2023-03-10T16:33:12.502Z,9
2023-03-10T16:39:06.843Z,8.9
2023-03-10T16:44:58.155Z,8.9
2023-03-10T16:50:49.706Z,8.3
2023-03-10T16:56:39.579Z,7.9
2023-03-10T17:02:30.110Z,6.9
2023-03-10T17:08:20.440Z,6.1
2023-03-10T17:14:10.744Z,5.6
2023-03-10T17:20:00.680Z,4.9
2023-03-10T17:25:50.811Z,4.3
2023-03-10T17:31:44.202Z,4.2
2023-03-10T17:37:36.240Z,3.8
2023-03-10T17:43:33.659Z,3.9
2023-03-10T17:49:23.993Z,3.9
2023-03-10T17:55:14.512Z,3.5
2023-03-10T18:01:06.735Z,3.4
2023-03-10T18:06:58.284Z,3.4
2023-03-10T18:12:49.288Z,3.4
2023-03-10T18:18:39.719Z,2.9
2023-03-10T18:24:30.562Z,3.1
2023-03-10T18:30:20.456Z,3
2023-03-10T18:36:11.359Z,2.8
2023-03-10T18:42:02.540Z,3.1
2023-03-10T18:47:53.974Z,3.1
2023-03-10T18:53:44.951Z,3.1
2023-03-10T18:59:36.474Z,2.9
2023-03-10T19:05:27.379Z,2.9
2023-03-10T19:11:20.725Z,2.8
2023-03-10T19:17:12.085Z,2.8
2023-03-10T19:23:02.791Z,2.8
2023-03-10T19:28:55.892Z,2.9
2023-03-10T19:34:46.419Z,2.8
2023-03-10T19:40:37.195Z,2.8
2023-03-10T19:46:29.600Z,3.1
2023-03-10T19:52:21.759Z,2.9
2023-03-10T19:58:13.173Z,2.8
2023-03-10T20:04:04.447Z,3
2023-03-10T20:09:58.386Z,3
2023-03-10T20:15:48.840Z,2.9
2023-03-10T20:21:39.589Z,2.9
2023-03-10T20:27:33.502Z,2.9
2023-03-10T20:33:24.256Z,2.7
2023-03-10T20:39:14.782Z,2.6
2023-03-10T20:45:05.820Z,2.6
2023-03-10T20:50:56.479Z,2.8
2023-03-10T20:56:46.303Z,2.8
2023-03-10T21:02:36.368Z,3
2023-03-10T21:08:29.559Z,2.9
2023-03-10T21:14:20.120Z,2.7
2023-03-10T21:20:10.668Z,2.6
2023-03-10T21:26:00.781Z,2.7
2023-03-10T21:31:50.399Z,2.6
2023-03-10T21:37:42.277Z,2.6
2023-03-10T21:43:37.335Z,2.5
2023-03-10T21:49:27.628Z,2.6
2023-03-10T21:55:18.912Z,2.6
2023-03-10T22:01:16.880Z,2.5
2023-03-10T22:07:08.231Z,2.6
2023-03-10T22:13:00.529Z,2.7
2023-03-10T22:18:50.532Z,2.6
2023-03-10T22:24:41.246Z,2.5
2023-03-10T22:30:31.374Z,2.4
2023-03-10T22:36:22.581Z,2.5
2023-03-10T22:42:12.545Z,2.5
2023-03-10T22:48:03.350Z,2.3
2023-03-10T22:53:53.213Z,2.5
2023-03-10T22:59:44.458Z,2.4
2023-03-10T23:05:34.974Z,2.5
2023-03-10T23:11:25.356Z,2.3
2023-03-10T23:17:14.990Z,2.4
2023-03-10T23:23:04.220Z,2.5
2023-03-10T23:28:54.688Z,2.5
2023-03-10T23:34:50.492Z,2.5
2023-03-10T23:40:47.192Z,2.4
2023-03-10T23:52:50.959Z,2.5
2023-03-10T23:59:11.915Z,2.6
